Effie, Minnesota
Current Conditions -  °F | °C
As of 6:13 AM on Saturday 25 Oct 2014 (Local Time) from KFOZ Reporting Station
Clear Clear  
Wind Chill: 42°   Ceiling: Unl
Heat Index: 46°   Visibility: 10mi
Dew Point: 30°   Wind: 8mph
Humidity: 53%   Direction: 290°WNW
Pressure: 29.9"   Gusts: NA
Location:  47.84°N, 93.64°W
Report Text: KFOZ 251113Z AUTO 29007KT 143V333 10SM CLR 08/M01 A2990 RMK AO2
Loading
Personal Weather Stations






























Interactive Weather Map
Tropical Storm Tracking
New forecast layout! Learn more

10-Day Weather Forecast

Advertisements
Track Severe Weather on mobile